Time;durP1;ratioP1;P1;durP2;ratioP2;P2;SDS_P1;SDS_P2;PMS_P1;PMS_P2;Temp;Humidity;BMP_temperature;BMP_pressure;BME280_temperature;BME280_humidity;BME280_pressure;Samples;Min_cycle;Max_cycle;Signal;HPM_P1;HPM_P2
2022/11/17 00:01:39;;;;;;;11.33;5.10;;;9.70;99.90;;;;;;5009607;28;20393;-53
2022/11/17 00:04:05;;;;;;;13.40;5.15;;;9.50;1.00;;;;;;5009329;28;20499;-61
2022/11/17 00:06:31;;;;;;;12.20;4.90;;;9.70;1.00;;;;;;5009467;28;20381;-55
2022/11/17 00:08:56;;;;;;;10.52;4.88;;;9.60;99.90;;;;;;4992112;28;20429;-55
2022/11/17 00:11:22;;;;;;;14.27;4.67;;;9.60;99.90;;;;;;5008732;28;20409;-53
2022/11/17 00:16:31;;;;;;;12.47;5.50;;;10.00;99.90;;;;;;5006443;28;20428;-53
2022/11/17 00:21:41;;;;;;;9.50;4.90;;;9.50;1.00;;;;;;5009228;28;20458;-53
2022/11/17 00:24:07;;;;;;;9.93;4.50;;;9.50;1.00;;;;;;4999282;28;20524;-62
2022/11/17 00:26:34;;;;;;;10.85;4.82;;;9.60;1.00;;;;;;4978943;28;20520;-53
2022/11/17 00:29:03;;;;;;;12.15;5.00;;;9.50;1.00;;;;;;4990060;28;20708;-53
2022/11/17 00:34:21;;;;;;;13.88;5.50;;;9.40;74.50;;;;;;4989359;28;20386;-53
2022/11/17 00:36:52;;;;;;;11.65;5.40;;;9.40;99.90;;;;;;4990539;28;20473;-53
2022/11/17 00:39:20;;;;;;;9.50;4.70;;;9.40;99.90;;;;;;4989566;28;20393;-53
2022/11/17 00:41:46;;;;;;;12.50;5.40;;;9.40;60.70;;;;;;4998114;28;20441;-53
2022/11/17 00:44:12;;;;;;;10.07;4.88;;;9.40;69.30;;;;;;5009133;28;20389;-53
2022/11/17 00:46:39;;;;;;;12.43;4.80;;;9.50;52.60;;;;;;5009800;28;20775;-53
2022/11/17 00:49:05;;;;;;;12.00;5.20;;;9.50;61.20;;;;;;5008830;28;20384;-53
2022/11/17 00:51:31;;;;;;;11.05;5.05;;;9.50;1.00;;;;;;5009103;28;20409;-53
2022/11/17 00:53:57;;;;;;;9.90;5.10;;;9.60;36.30;;;;;;5009898;28;20720;-53
2022/11/17 00:56:24;;;;;;;13.63;4.53;;;9.60;1.00;;;;;;5008966;28;20435;-53
2022/11/17 00:58:50;;;;;;;10.70;4.82;;;9.70;1.00;;;;;;5009519;28;20393;-53
2022/11/17 01:01:15;;;;;;;13.45;4.72;;;9.20;1.00;;;;;;5008906;28;20385;-53
2022/11/17 01:03:41;;;;;;;10.50;4.63;;;9.80;1.00;;;;;;5009480;28;20419;-53
2022/11/17 01:06:13;;;;;;;10.70;4.50;;;9.70;1.00;;;;;;5009548;28;20888;-60
2022/11/17 01:08:39;;;;;;;10.48;5.25;;;9.80;1.00;;;;;;5009851;28;20798;-51
2022/11/17 01:11:14;;;;;;;11.50;4.70;;;9.90;99.90;;;;;;5009035;28;20456;-54
2022/11/17 01:13:41;;;;;;;9.77;4.40;;;9.80;1.00;;;;;;4991613;28;20826;-52
2022/11/17 01:16:10;;;;;;;10.18;4.30;;;9.80;1.00;;;;;;5009044;28;20401;-60
2022/11/17 01:18:36;;;;;;;10.45;4.57;;;9.70;1.00;;;;;;5009148;28;20377;-52
2022/11/17 01:21:07;;;;;;;12.25;4.60;;;9.70;1.00;;;;;;5009257;28;20451;-52
2022/11/17 01:23:33;;;;;;;11.60;4.50;;;9.70;1.00;;;;;;5028821;28;20391;-52
2022/11/17 01:26:14;;;;;;;9.60;4.10;;;9.70;30.40;;;;;;5011300;28;20448;-52
2022/11/17 01:28:40;;;;;;;11.50;3.80;;;9.70;91.90;;;;;;5029151;28;20855;-52
2022/11/17 01:31:26;;;;;;;9.38;3.78;;;9.80;1.00;;;;;;5028781;28;20445;-59
2022/11/17 01:33:52;;;;;;;9.60;3.63;;;9.70;15.70;;;;;;5029141;28;20517;-52
2022/11/17 01:36:20;;;;;;;7.65;3.55;;;9.70;53.40;;;;;;5028189;28;20386;-53
2022/11/17 01:38:46;;;;;;;8.30;3.78;;;9.80;1.00;;;;;;5011106;28;20718;-53
2022/11/17 01:41:18;;;;;;;8.25;4.00;;;9.80;1.00;;;;;;5027681;28;20509;-56
2022/11/17 01:43:55;;;;;;;9.73;3.30;;;9.90;1.00;;;;;;5028602;28;20398;-52
2022/11/17 01:46:35;;;;;;;8.27;3.20;;;9.90;1.00;;;;;;5028087;28;20386;-52
2022/11/17 01:49:21;;;;;;;11.10;3.50;;;9.90;1.00;;;;;;5028781;28;20932;-54
2022/11/17 01:51:53;;;;;;;9.82;3.47;;;9.90;1.00;;;;;;5004246;28;20466;-53
2022/11/17 01:54:21;;;;;;;7.65;3.30;;;10.00;1.00;;;;;;4988744;28;20382;-52
2022/11/17 01:56:51;;;;;;;9.40;4.00;;;10.00;1.00;;;;;;4989288;28;20404;-53
2022/11/17 01:59:29;;;;;;;11.48;3.70;;;10.10;99.90;;;;;;4988695;28;20390;-53
2022/11/17 02:01:54;;;;;;;9.00;3.70;;;10.10;1.00;;;;;;4991884;28;20515;-54
2022/11/17 02:04:24;;;;;;;8.43;3.50;;;10.10;1.00;;;;;;4992729;28;20489;-53
2022/11/17 02:06:53;;;;;;;10.50;4.00;;;10.10;1.00;;;;;;4993161;28;20381;-53
2022/11/17 02:09:21;;;;;;;7.63;3.40;;;10.10;1.00;;;;;;4992277;28;20422;-54
2022/11/17 02:11:48;;;;;;;8.70;3.47;;;10.00;1.00;;;;;;4993060;28;20406;-54
2022/11/17 02:14:14;;;;;;;9.70;4.10;;;10.00;1.00;;;;;;4992635;28;20394;-53
2022/11/17 02:16:39;;;;;;;8.57;3.85;;;10.00;1.00;;;;;;4992954;28;20482;-53
2022/11/17 02:19:05;;;;;;;8.93;3.60;;;10.00;1.00;;;;;;4993300;28;20934;-54
2022/11/17 02:21:40;;;;;;;9.38;3.63;;;10.00;1.00;;;;;;4992461;28;20469;-53
2022/11/17 02:24:21;;;;;;;9.25;3.28;;;9.90;1.00;;;;;;4993305;28;20437;-53
2022/11/17 02:27:13;;;;;;;7.93;3.30;;;9.80;1.00;;;;;;4992405;28;20379;-53
2022/11/17 02:29:49;;;;;;;11.57;3.80;;;9.80;1.00;;;;;;4992696;28;20418;-53
2022/11/17 02:32:41;;;;;;;9.00;3.60;;;9.70;61.40;;;;;;4991612;28;20832;-52
2022/11/17 02:35:28;;;;;;;10.40;3.58;;;9.70;13.10;;;;;;4992076;28;20387;-59
2022/11/17 02:38:26;;;;;;;8.25;3.65;;;9.60;99.80;;;;;;4992398;28;20390;-52
2022/11/17 02:41:34;;;;;;;10.48;4.03;;;9.40;99.90;;;;;;4981554;28;20433;-53
2022/11/17 02:44:32;;;;;;;9.48;3.90;;;9.40;99.90;;;;;;4972717;28;20399;-53
2022/11/17 02:47:26;;;;;;;9.40;3.88;;;9.40;99.90;;;;;;4988534;28;20453;-52
2022/11/17 02:50:01;;;;;;;10.07;4.68;;;9.20;99.90;;;;;;4990464;28;20422;-53
2022/11/17 02:52:28;;;;;;;11.27;4.43;;;9.10;99.90;;;;;;4991643;28;20862;-53
2022/11/17 02:55:06;;;;;;;11.88;4.60;;;9.10;99.90;;;;;;4992187;28;20386;-53
2022/11/17 02:57:34;;;;;;;10.02;4.60;;;9.00;1.00;;;;;;4990993;28;20379;-53
2022/11/17 03:00:12;;;;;;;9.18;4.00;;;9.00;1.00;;;;;;4992212;28;20870;-52
2022/11/17 03:02:53;;;;;;;8.27;3.45;;;9.10;1.00;;;;;;4995418;28;20424;-52
2022/11/17 03:05:35;;;;;;;10.63;4.30;;;9.20;99.90;;;;;;5003525;28;20396;-52
2022/11/17 03:08:12;;;;;;;9.15;3.70;;;9.20;99.90;;;;;;5011361;28;20786;-53
2022/11/17 03:10:59;;;;;;;8.70;4.00;;;9.20;99.90;;;;;;5011396;28;20413;-52
2022/11/17 03:13:44;;;;;;;8.20;3.50;;;9.30;99.90;;;;;;5010560;28;20502;-53
2022/11/17 03:16:28;;;;;;;9.88;3.97;;;9.40;99.90;;;;;;5011939;28;20432;-60
2022/11/17 03:19:17;;;;;;;12.98;4.38;;;9.50;99.90;;;;;;5011337;28;20487;-52
2022/11/17 03:22:11;;;;;;;7.93;3.55;;;9.60;99.90;;;;;;5011457;28;20432;-53
2022/11/17 03:24:46;;;;;;;7.55;3.40;;;9.70;99.90;;;;;;5011391;28;20409;-52
2022/11/17 03:27:17;;;;;;;11.00;3.80;;;9.70;99.90;;;;;;5010581;28;20381;-60
2022/11/17 03:29:47;;;;;;;9.20;4.32;;;9.70;99.90;;;;;;5011217;28;20463;-53
2022/11/17 03:32:14;;;;;;;8.32;3.47;;;9.80;99.90;;;;;;5010625;28;20392;-60
2022/11/17 03:34:44;;;;;;;9.03;3.60;;;9.90;99.90;;;;;;5011215;28;20385;-53
2022/11/17 03:37:14;;;;;;;7.43;3.13;;;9.90;99.90;;;;;;5010738;28;20404;-61
2022/11/17 03:39:44;;;;;;;8.68;2.90;;;10.00;92.60;;;;;;5010877;28;20389;-53
2022/11/17 03:42:32;;;;;;;7.20;3.00;;;10.00;92.50;;;;;;5010565;28;20886;-61
2022/11/17 03:45:05;;;;;;;6.67;2.70;;;10.40;99.90;;;;;;5010694;28;20460;-53
2022/11/17 03:47:33;;;;;;;8.27;2.80;;;10.20;1.00;;;;;;5010104;28;20380;-56
2022/11/17 03:50:20;;;;;;;7.80;2.72;;;10.30;1.00;;;;;;5010848;28;20428;-53
2022/11/17 03:52:47;;;;;;;8.20;2.70;;;10.40;1.00;;;;;;5010916;28;20448;-53
2022/11/17 03:55:14;;;;;;;9.07;2.40;;;10.30;99.90;;;;;;5009898;28;20460;-54
2022/11/17 03:58:02;;;;;;;7.35;2.55;;;10.30;1.00;;;;;;5010712;28;20385;-53
2022/11/17 04:00:27;;;;;;;5.50;2.00;;;10.30;1.00;;;;;;5010362;28;20393;-53
2022/11/17 04:02:57;;;;;;;7.47;2.50;;;10.40;1.00;;;;;;5010431;28;20431;-53
2022/11/17 04:05:23;;;;;;;6.10;2.28;;;10.40;1.00;;;;;;5009816;28;20385;-54
2022/11/17 04:07:49;;;;;;;6.00;1.77;;;10.40;1.00;;;;;;5010539;28;20849;-51
2022/11/17 04:10:23;;;;;;;5.97;1.75;;;10.30;9.90;;;;;;5009565;28;20420;-51
2022/11/17 04:18:20;;;;;;;5.20;1.50;;;10.40;57.60;;;;;;5009693;28;20539;-53
2022/11/17 04:20:49;;;;;;;5.30;1.50;;;10.40;1.00;;;;;;5010323;28;20452;-54
2022/11/17 04:23:15;;;;;;;5.57;2.00;;;10.50;71.00;;;;;;5009593;28;20388;-53
2022/11/17 04:28:38;;;;;;;6.20;1.80;;;10.60;1.00;;;;;;5009553;28;20435;-53
2022/11/17 04:31:15;;;;;;;6.00;1.67;;;10.70;1.00;;;;;;5010280;28;20953;-53
2022/11/17 04:33:43;;;;;;;5.60;1.70;;;10.70;1.00;;;;;;5009869;28;20723;-53
2022/11/17 04:36:10;;;;;;;5.90;1.88;;;10.70;1.00;;;;;;5010183;28;20429;-53
2022/11/17 04:38:39;;;;;;;6.35;1.77;;;10.60;1.00;;;;;;5010157;28;20882;-53
2022/11/17 04:43:52;;;;;;;6.60;2.22;;;10.70;1.00;;;;;;5005359;28;20845;-53
2022/11/17 04:46:18;;;;;;;6.60;2.27;;;10.60;99.90;;;;;;5012180;28;20392;-54
2022/11/17 04:48:45;;;;;;;5.70;1.60;;;10.60;99.90;;;;;;5020144;28;20467;-53
2022/11/17 04:51:10;;;;;;;6.10;2.00;;;10.70;54.30;;;;;;5013918;28;20451;-54
2022/11/17 04:53:36;;;;;;;6.30;1.90;;;10.70;1.00;;;;;;5009969;28;20384;-56
2022/11/17 04:56:03;;;;;;;6.00;1.90;;;10.80;1.00;;;;;;5009450;28;20754;-53
2022/11/17 04:58:28;;;;;;;7.77;1.93;;;10.80;1.00;;;;;;5008582;28;20393;-54
2022/11/17 05:00:54;;;;;;;9.05;1.80;;;10.80;1.00;;;;;;5011134;28;20439;-53
2022/11/17 05:03:20;;;;;;;6.00;2.00;;;10.90;1.00;;;;;;5028817;28;20951;-53
2022/11/17 05:05:47;;;;;;;6.50;2.20;;;10.80;1.00;;;;;;5024478;28;20490;-53
2022/11/17 05:08:13;;;;;;;5.68;1.70;;;10.90;1.00;;;;;;5004132;28;20393;-60
2022/11/17 05:13:25;;;;;;;6.63;2.00;;;10.90;1.00;;;;;;4989478;28;20378;-52
2022/11/17 05:18:42;;;;;;;6.07;1.92;;;11.00;1.00;;;;;;4988845;28;20405;-53
2022/11/17 05:21:09;;;;;;;5.10;1.50;;;11.00;78.70;;;;;;4990406;28;20899;-54
2022/11/17 05:23:53;;;;;;;6.15;1.90;;;11.00;99.90;;;;;;4991517;28;20421;-53
2022/11/17 05:26:21;;;;;;;8.73;2.13;;;11.00;1.00;;;;;;5001278;28;20492;-52
2022/11/17 05:28:46;;;;;;;6.53;2.00;;;11.00;1.00;;;;;;5008032;28;20484;-54
2022/11/17 05:31:12;;;;;;;7.00;2.30;;;10.90;1.00;;;;;;4990936;28;20498;-60
2022/11/17 05:33:38;;;;;;;8.10;2.30;;;11.20;99.90;;;;;;5008725;28;20472;-55
2022/11/17 05:36:05;;;;;;;6.97;2.50;;;10.70;99.90;;;;;;5008309;28;20857;-53
2022/11/17 05:38:30;;;;;;;7.55;2.63;;;10.70;99.90;;;;;;4990583;28;20952;-53
2022/11/17 05:40:56;;;;;;;5.90;2.03;;;10.60;99.90;;;;;;5003099;28;20406;-53
2022/11/17 05:43:22;;;;;;;6.93;2.22;;;10.60;99.90;;;;;;4993356;28;20421;-54
2022/11/17 05:45:48;;;;;;;8.10;2.10;;;10.60;99.90;;;;;;5005350;28;20816;-54
2022/11/17 05:48:14;;;;;;;7.07;2.50;;;10.60;99.90;;;;;;5007776;28;20396;-61
2022/11/17 05:50:40;;;;;;;6.63;2.63;;;10.50;99.90;;;;;;4994711;28;20423;-53
2022/11/17 05:53:05;;;;;;;5.93;2.30;;;10.50;99.90;;;;;;5020232;28;20698;-53
2022/11/17 05:55:31;;;;;;;6.50;2.30;;;10.70;99.90;;;;;;5027778;28;20516;-54
2022/11/17 05:58:10;;;;;;;6.70;2.20;;;10.70;99.90;;;;;;5019960;28;20402;-58
2022/11/17 06:00:38;;;;;;;7.85;2.55;;;10.80;99.90;;;;;;5002389;28;20408;-56
2022/11/17 06:03:11;;;;;;;6.10;2.00;;;10.90;99.90;;;;;;5005253;28;20433;-54
2022/11/17 06:05:37;;;;;;;8.57;2.30;;;11.40;99.90;;;;;;5013314;28;20389;-54
2022/11/17 06:08:03;;;;;;;6.72;2.28;;;10.80;99.90;;;;;;5017340;28;20383;-52
2022/11/17 06:10:28;;;;;;;6.53;2.03;;;10.80;99.90;;;;;;5011274;28;20447;-53
2022/11/17 06:12:54;;;;;;;7.10;2.10;;;11.80;99.90;;;;;;5011793;28;20447;-53
2022/11/17 06:15:20;;;;;;;6.70;2.13;;;10.80;99.90;;;;;;5004583;28;20428;-53
2022/11/17 06:17:53;;;;;;;6.95;2.50;;;10.80;99.90;;;;;;5027973;28;20489;-55
2022/11/17 06:20:25;;;;;;;5.60;1.85;;;10.80;99.90;;;;;;5026909;28;20391;-53
2022/11/17 06:22:51;;;;;;;7.10;2.20;;;10.80;99.90;;;;;;5028138;28;20531;-53
2022/11/17 06:25:18;;;;;;;5.60;1.80;;;11.70;99.90;;;;;;5027289;28;20383;-53
2022/11/17 06:27:46;;;;;;;8.20;2.10;;;10.90;99.90;;;;;;5010637;28;20395;-53
2022/11/17 06:30:12;;;;;;;6.20;1.90;;;11.00;99.90;;;;;;5013088;28;20839;-60
2022/11/17 06:32:39;;;;;;;6.50;1.88;;;10.60;99.90;;;;;;5008123;28;20392;-53
2022/11/17 06:35:07;;;;;;;5.57;1.80;;;11.00;99.90;;;;;;5008504;28;20380;-53
2022/11/17 06:37:33;;;;;;;6.50;1.63;;;11.00;95.80;;;;;;5007978;28;20737;-54
2022/11/17 06:39:58;;;;;;;5.33;1.57;;;11.00;99.90;;;;;;5008629;28;20918;-53
2022/11/17 06:45:09;;;;;;;5.97;1.47;;;10.90;14.80;;;;;;5008460;28;20454;-55
2022/11/17 06:47:35;;;;;;;4.50;1.10;;;10.90;1.00;;;;;;5009460;28;20377;-54
2022/11/17 06:50:00;;;;;;;5.40;1.40;;;10.90;3.00;;;;;;5012150;28;20432;-53
2022/11/17 06:52:26;;;;;;;5.43;1.40;;;11.00;47.00;;;;;;5011225;28;20373;-53
2022/11/17 06:54:51;;;;;;;6.50;1.80;;;11.20;16.40;;;;;;5011976;28;20443;-53
2022/11/17 06:57:17;;;;;;;5.70;1.30;;;11.10;1.00;;;;;;5010870;28;20394;-53
2022/11/17 06:59:43;;;;;;;5.70;1.58;;;11.30;1.00;;;;;;5012142;28;20396;-52
2022/11/17 07:02:08;;;;;;;5.80;1.50;;;11.20;99.90;;;;;;5012086;28;20393;-52
2022/11/17 07:04:34;;;;;;;5.80;1.20;;;11.20;1.00;;;;;;5012285;28;20402;-58
2022/11/17 07:07:00;;;;;;;5.20;1.40;;;11.10;1.00;;;;;;5018858;28;20436;-53
2022/11/17 07:09:25;;;;;;;6.78;1.80;;;11.20;1.00;;;;;;5025465;28;20829;-53
2022/11/17 07:11:51;;;;;;;5.40;1.50;;;11.20;1.00;;;;;;5014161;28;20397;-53
2022/11/17 07:14:17;;;;;;;5.50;1.70;;;11.20;1.00;;;;;;5013118;28;20731;-53
2022/11/17 07:16:42;;;;;;;6.10;1.90;;;11.20;1.00;;;;;;5031223;28;20402;-53
2022/11/17 07:19:09;;;;;;;6.10;1.60;;;11.20;1.00;;;;;;5031163;28;20391;-54
2022/11/17 07:21:35;;;;;;;5.60;1.52;;;11.20;1.00;;;;;;5030174;28;20370;-53
2022/11/17 07:24:02;;;;;;;5.30;1.55;;;11.30;1.00;;;;;;5019030;28;20385;-53
2022/11/17 07:26:28;;;;;;;7.70;1.90;;;11.40;1.00;;;;;;5010345;28;20384;-53
2022/11/17 07:28:54;;;;;;;5.50;1.70;;;11.50;99.90;;;;;;5011316;28;20373;-52
2022/11/17 07:31:20;;;;;;;6.88;1.80;;;11.60;99.90;;;;;;5010200;28;20435;-53
2022/11/17 07:33:45;;;;;;;6.13;1.50;;;11.70;1.00;;;;;;5011218;28;20384;-52
2022/11/17 07:36:15;;;;;;;5.53;1.77;;;11.60;1.00;;;;;;5010887;28;20400;-52
2022/11/17 07:38:41;;;;;;;6.50;1.75;;;11.80;99.90;;;;;;5010869;28;20479;-53
2022/11/17 07:41:10;;;;;;;5.88;1.75;;;11.90;99.90;;;;;;5023264;28;20449;-56
2022/11/17 07:43:36;;;;;;;4.90;1.10;;;11.90;1.00;;;;;;5030186;28;20852;-52
2022/11/17 07:46:11;;;;;;;5.95;1.40;;;12.10;1.00;;;;;;5030837;28;20717;-53
2022/11/17 07:48:37;;;;;;;7.05;1.30;;;12.10;1.00;;;;;;5029809;28;20384;-53
2022/11/17 07:51:04;;;;;;;5.60;1.40;;;12.20;99.90;;;;;;5030093;28;20403;-53
2022/11/17 07:53:31;;;;;;;5.88;1.40;;;12.30;99.90;;;;;;5029495;28;20379;-52
2022/11/17 07:56:09;;;;;;;4.90;0.90;;;12.40;1.00;;;;;;5030550;28;20406;-53
2022/11/17 07:58:35;;;;;;;5.27;1.30;;;12.50;99.90;;;;;;5028981;28;20671;-52
2022/11/17 08:01:15;;;;;;;5.28;1.10;;;12.50;99.90;;;;;;5030478;28;20482;-52
2022/11/17 08:03:41;;;;;;;5.60;1.35;;;12.40;1.00;;;;;;5030052;28;20387;-52
2022/11/17 08:06:10;;;;;;;4.97;0.95;;;12.40;1.00;;;;;;5030356;28;20379;-53
2022/11/17 08:08:37;;;;;;;4.20;0.90;;;12.20;99.90;;;;;;5029566;28;20384;-53
2022/11/17 08:11:04;;;;;;;7.10;1.20;;;12.30;99.90;;;;;;5030272;28;20484;-54
2022/11/17 08:13:29;;;;;;;4.97;1.00;;;12.20;99.90;;;;;;5029482;28;20391;-53
2022/11/17 08:15:56;;;;;;;6.13;1.03;;;12.30;73.90;;;;;;5012186;28;20385;-54
2022/11/17 08:18:22;;;;;;;5.22;1.23;;;12.40;1.00;;;;;;5009633;28;20387;-53
2022/11/17 08:20:47;;;;;;;4.60;1.00;;;12.40;1.00;;;;;;5010380;28;20389;-52
2022/11/17 08:23:13;;;;;;;6.72;1.33;;;12.30;1.00;;;;;;5009971;28;20387;-54
2022/11/17 08:25:39;;;;;;;4.70;0.80;;;12.50;99.90;;;;;;5009894;28;20871;-53
2022/11/17 08:28:04;;;;;;;4.30;0.60;;;12.60;99.90;;;;;;5010042;28;20406;-53
2022/11/17 08:30:33;;;;;;;5.20;0.90;;;12.80;12.70;;;;;;5009377;28;20491;-53
2022/11/17 08:32:59;;;;;;;4.82;0.73;;;12.80;1.00;;;;;;5010021;28;20405;-53
2022/11/17 08:35:25;;;;;;;6.10;0.80;;;12.60;1.00;;;;;;5009294;28;20436;-53
2022/11/17 08:37:51;;;;;;;5.40;1.00;;;12.40;1.00;;;;;;5009832;28;20918;-53
2022/11/17 08:40:17;;;;;;;4.80;0.63;;;12.50;1.00;;;;;;5009668;28;20376;-60
2022/11/17 08:42:44;;;;;;;4.60;0.90;;;12.30;99.90;;;;;;5009309;28;20735;-54
2022/11/17 08:45:09;;;;;;;5.20;0.80;;;12.40;99.90;;;;;;5009684;28;20904;-53
2022/11/17 08:47:36;;;;;;;5.10;0.60;;;12.50;26.80;;;;;;5009255;28;20565;-53
2022/11/17 08:50:02;;;;;;;4.20;0.60;;;12.60;73.10;;;;;;5009743;28;20404;-53
2022/11/17 08:52:28;;;;;;;6.82;1.30;;;12.80;1.00;;;;;;5008880;28;20381;-53
2022/11/17 08:54:53;;;;;;;6.32;1.00;;;13.10;1.00;;;;;;5009854;28;20385;-53
2022/11/17 08:57:20;;;;;;;5.20;0.50;;;13.20;99.90;;;;;;5008627;28;20384;-53
2022/11/17 08:59:46;;;;;;;4.22;0.50;;;13.30;99.90;;;;;;5009634;28;20401;-53
2022/11/17 09:02:13;;;;;;;5.57;0.60;;;13.70;99.90;;;;;;5009892;28;20388;-53
2022/11/17 09:04:38;;;;;;;4.70;0.80;;;13.70;1.00;;;;;;5008951;28;20377;-52
2022/11/17 09:07:04;;;;;;;6.17;0.80;;;13.60;1.00;;;;;;5009596;28;20722;-54
2022/11/17 09:09:31;;;;;;;4.57;0.50;;;13.70;1.00;;;;;;5007949;28;20429;-54
2022/11/17 09:11:58;;;;;;;4.50;0.70;;;14.40;1.00;;;;;;5009475;28;20512;-54
2022/11/17 09:14:24;;;;;;;9.40;1.10;;;14.50;1.00;;;;;;5014445;28;20474;-53
2022/11/17 09:16:49;;;;;;;8.65;1.02;;;15.30;99.90;;;;;;5029901;28;20534;-54
2022/11/17 09:19:16;;;;;;;7.10;0.70;;;15.80;1.00;;;;;;5029065;28;20391;-60
2022/11/17 09:21:41;;;;;;;4.50;0.60;;;15.10;1.00;;;;;;5028771;28;20958;-53
2022/11/17 09:24:07;;;;;;;5.30;0.80;;;14.90;1.00;;;;;;5028850;28;20415;-53
2022/11/17 09:26:33;;;;;;;5.28;0.80;;;14.60;1.00;;;;;;5027960;28;20452;-53
2022/11/17 09:29:02;;;;;;;7.00;0.57;;;14.20;1.00;;;;;;5028972;28;20847;-53
2022/11/17 09:31:28;;;;;;;5.35;0.50;;;14.10;1.00;;;;;;5028457;28;20434;-53
2022/11/17 09:33:54;;;;;;;5.50;0.80;;;14.00;1.00;;;;;;5011188;28;20764;-53
2022/11/17 09:36:19;;;;;;;7.73;0.73;;;13.90;1.00;;;;;;5028237;28;20935;-54
2022/11/17 09:38:49;;;;;;;7.25;0.70;;;13.90;1.00;;;;;;5029211;28;20394;-53
2022/11/17 09:41:15;;;;;;;6.10;0.50;;;13.80;1.00;;;;;;5028183;28;20399;-60
2022/11/17 09:43:51;;;;;;;6.43;1.40;;;13.60;1.00;;;;;;5028248;28;20918;-53
2022/11/17 09:46:28;;;;;;;6.18;0.70;;;13.60;3.60;;;;;;5028578;28;20382;-61
2022/11/17 09:49:11;;;;;;;5.15;0.70;;;13.70;1.00;;;;;;5029213;28;20398;-53
2022/11/17 09:51:41;;;;;;;5.15;0.80;;;13.70;1.00;;;;;;5028177;28;20453;-53
2022/11/17 09:54:40;;;;;;;5.88;0.50;;;13.60;1.00;;;;;;5028919;28;20386;-53
2022/11/17 09:57:17;;;;;;;4.60;0.60;;;13.50;1.00;;;;;;5029037;28;20440;-54
2022/11/17 09:59:44;;;;;;;6.90;0.60;;;13.60;1.00;;;;;;5029054;28;20860;-53
2022/11/17 10:02:09;;;;;;;4.97;0.70;;;13.60;1.00;;;;;;5028779;28;20474;-53
2022/11/17 10:04:35;;;;;;;5.60;0.70;;;13.70;1.00;;;;;;5010143;28;20467;-53
2022/11/17 10:07:02;;;;;;;5.10;0.60;;;13.70;1.00;;;;;;5028721;28;20414;-53
2022/11/17 10:09:43;;;;;;;6.27;1.03;;;13.60;1.00;;;;;;5027539;28;20418;-53
2022/11/17 10:12:39;;;;;;;4.60;0.50;;;13.50;1.00;;;;;;5028759;28;20500;-53
2022/11/17 10:15:26;;;;;;;5.90;0.50;;;13.60;1.00;;;;;;5016541;28;20405;-53
2022/11/17 10:17:52;;;;;;;4.32;0.50;;;13.80;1.00;;;;;;5001380;28;20433;-54
2022/11/17 10:20:18;;;;;;;6.40;0.60;;;14.20;1.00;;;;;;5008664;28;20396;-61
2022/11/17 10:22:45;;;;;;;5.50;0.70;;;14.10;1.00;;;;;;5012969;28;20865;-53
2022/11/17 10:25:22;;;;;;;4.65;0.60;;;14.00;1.00;;;;;;5012625;28;20373;-53
2022/11/17 10:27:52;;;;;;;7.28;1.10;;;13.80;1.00;;;;;;5004726;28;21124;-53
2022/11/17 10:30:18;;;;;;;6.30;0.60;;;13.80;1.00;;;;;;5012152;28;20507;-60
2022/11/17 10:32:55;;;;;;;5.45;0.80;;;13.70;1.00;;;;;;5012602;28;20579;-53
2022/11/17 10:35:23;;;;;;;5.43;0.77;;;13.70;1.00;;;;;;5012086;28;20397;-54
2022/11/17 10:37:54;;;;;;;7.10;0.90;;;13.80;1.00;;;;;;5012236;28;20385;-53
2022/11/17 10:40:44;;;;;;;5.10;0.70;;;13.80;1.00;;;;;;5011685;28;20395;-61
2022/11/17 10:43:13;;;;;;;6.38;0.50;;;13.80;1.00;;;;;;5011530;28;20522;-54
2022/11/17 10:45:46;;;;;;;6.00;0.50;;;13.80;1.00;;;;;;5011570;28;20387;-56
2022/11/17 10:48:36;;;;;;;5.53;0.90;;;14.00;1.00;;;;;;5012269;28;20797;-53
2022/11/17 10:51:20;;;;;;;7.45;1.92;;;14.00;1.00;;;;;;5012059;28;20420;-53
2022/11/17 10:54:14;;;;;;;5.10;0.60;;;13.90;1.00;;;;;;5012561;28;20377;-53
2022/11/17 10:56:46;;;;;;;5.50;0.75;;;13.90;1.00;;;;;;5011198;28;20465;-54
2022/11/17 10:59:17;;;;;;;6.40;0.80;;;13.60;1.00;;;;;;5011974;28;20453;-53
2022/11/17 11:01:46;;;;;;;7.75;0.75;;;13.50;1.00;;;;;;5011711;28;20452;-53
2022/11/17 11:04:32;;;;;;;4.90;0.60;;;13.60;1.00;;;;;;5011673;28;20392;-53
2022/11/17 11:07:27;;;;;;;8.52;0.82;;;13.70;1.00;;;;;;5012015;28;20393;-53
2022/11/17 11:10:28;;;;;;;5.20;0.50;;;13.70;1.00;;;;;;4994151;28;20416;-53
2022/11/17 11:13:16;;;;;;;6.13;0.70;;;13.90;1.00;;;;;;4986672;28;20890;-53
2022/11/17 11:15:41;;;;;;;5.80;0.80;;;14.80;1.00;;;;;;5021513;28;20414;-53
2022/11/17 11:18:15;;;;;;;6.60;0.63;;;15.40;1.00;;;;;;5031498;28;20375;-54
2022/11/17 11:21:01;;;;;;;5.60;0.80;;;15.40;1.00;;;;;;5030293;28;21013;-54
2022/11/17 11:23:49;;;;;;;4.87;0.57;;;15.50;1.00;;;;;;5030324;28;20405;-53
2022/11/17 11:26:43;;;;;;;5.95;0.50;;;15.40;1.00;;;;;;5031327;28;20527;-53
2022/11/17 11:29:21;;;;;;;6.10;0.80;;;15.20;1.00;;;;;;5030960;28;20440;-53
2022/11/17 11:31:46;;;;;;;5.68;0.68;;;15.40;1.00;;;;;;5030593;28;20527;-54
2022/11/17 11:34:36;;;;;;;6.33;0.60;;;15.70;1.00;;;;;;5030215;28;20466;-55
2022/11/17 11:37:10;;;;;;;6.90;0.90;;;15.60;1.00;;;;;;5031138;28;20406;-53
2022/11/17 11:39:54;;;;;;;6.40;0.60;;;14.80;1.00;;;;;;5030158;28;20818;-56
2022/11/17 11:42:57;;;;;;;5.53;0.80;;;14.90;1.00;;;;;;5030104;28;20419;-61
2022/11/17 11:45:31;;;;;;;6.95;0.90;;;15.00;1.00;;;;;;5016849;28;20440;-54
2022/11/17 11:48:00;;;;;;;4.47;0.40;;;15.20;1.00;;;;;;5030952;28;20448;-53
2022/11/17 11:50:47;;;;;;;4.40;0.50;;;14.80;1.00;;;;;;5029877;28;20789;-53
2022/11/17 11:53:54;;;;;;;4.57;0.40;;;14.60;1.00;;;;;;5030984;28;20413;-54
2022/11/17 11:56:35;;;;;;;4.90;0.60;;;14.30;1.00;;;;;;5028954;28;20405;-61
2022/11/17 11:59:05;;;;;;;5.10;0.57;;;14.40;1.00;;;;;;5030304;28;20395;-55
2022/11/17 12:02:03;;;;;;;4.70;0.50;;;14.70;1.00;;;;;;5030231;28;20410;-53
2022/11/17 12:04:46;;;;;;;5.90;0.60;;;15.10;1.00;;;;;;4998912;28;20440;-53
2022/11/17 12:07:21;;;;;;;4.90;0.50;;;15.40;1.00;;;;;;5030636;28;20535;-53
2022/11/17 12:10:03;;;;;;;4.32;0.40;;;15.60;1.00;;;;;;5030445;28;20410;-55
2022/11/17 12:12:36;;;;;;;5.82;0.50;;;15.50;1.00;;;;;;5029418;28;20407;-53
2022/11/17 12:15:11;;;;;;;6.43;0.80;;;15.20;1.00;;;;;;5019733;28;20397;-53
2022/11/17 12:18:00;;;;;;;5.70;0.50;;;15.40;1.00;;;;;;5009854;28;20392;-53
2022/11/17 12:20:39;;;;;;;5.90;0.50;;;15.10;1.00;;;;;;5009892;28;20385;-53
2022/11/17 12:23:36;;;;;;;6.32;0.80;;;14.90;1.00;;;;;;5010265;28;20438;-53
2022/11/17 12:26:02;;;;;;;5.60;0.60;;;15.30;1.00;;;;;;5010410;28;20463;-53
2022/11/17 12:28:41;;;;;;;6.20;0.50;;;15.50;1.00;;;;;;5009050;28;20425;-53
2022/11/17 12:31:45;;;;;;;6.65;0.60;;;15.40;1.00;;;;;;5010139;28;20432;-54
2022/11/17 12:34:25;;;;;;;5.00;0.70;;;15.30;1.00;;;;;;5005495;28;20409;-53
2022/11/17 12:37:13;;;;;;;5.75;0.68;;;15.40;1.00;;;;;;5010119;28;20905;-53
2022/11/17 12:39:55;;;;;;;4.78;0.70;;;15.40;1.00;;;;;;5009153;28;20396;-53
2022/11/17 12:42:21;;;;;;;8.13;0.60;;;15.30;1.00;;;;;;5008521;28;20462;-60
2022/11/17 12:45:06;;;;;;;4.30;0.40;;;15.40;1.00;;;;;;5001782;28;20408;-53
2022/11/17 12:47:37;;;;;;;7.38;0.90;;;15.30;1.00;;;;;;5009141;28;20794;-53
2022/11/17 12:50:18;;;;;;;7.82;0.70;;;15.40;1.00;;;;;;5009551;28;20553;-54
2022/11/17 12:53:10;;;;;;;5.22;0.60;;;15.30;1.00;;;;;;5009505;28;20477;-53
2022/11/17 12:56:22;;;;;;;5.10;0.60;;;15.40;1.00;;;;;;5008511;28;20795;-54
2022/11/17 12:58:47;;;;;;;5.93;0.80;;;15.70;1.00;;;;;;5001518;28;20412;-52
2022/11/17 13:01:23;;;;;;;7.10;0.90;;;15.70;1.00;;;;;;5009266;28;20446;-53
2022/11/17 13:03:58;;;;;;;7.00;0.70;;;15.60;1.00;;;;;;4991842;28;20393;-53
2022/11/17 13:06:23;;;;;;;6.90;0.70;;;15.60;1.00;;;;;;5008853;28;20408;-58
2022/11/17 13:09:05;;;;;;;6.67;0.90;;;15.80;1.00;;;;;;5009216;28;20396;-53
2022/11/17 13:11:31;;;;;;;6.07;0.60;;;15.50;1.00;;;;;;5008784;28;20531;-54
2022/11/17 13:14:11;;;;;;;10.10;1.10;;;15.70;1.00;;;;;;5010472;28;20428;-53
2022/11/17 13:16:49;;;;;;;6.05;0.93;;;15.90;1.00;;;;;;5028325;28;20387;-54
2022/11/17 13:19:38;;;;;;;6.55;0.70;;;16.10;1.00;;;;;;5029356;28;20387;-53
2022/11/17 13:22:09;;;;;;;7.00;0.93;;;16.20;1.00;;;;;;5028632;28;20375;-54
2022/11/17 13:24:37;;;;;;;6.65;0.80;;;16.40;1.00;;;;;;5028526;28;20965;-53
2022/11/17 13:27:14;;;;;;;9.73;1.67;;;16.50;1.00;;;;;;5028514;28;20888;-53
2022/11/17 13:29:40;;;;;;;9.10;0.90;;;16.40;1.00;;;;;;5028003;28;20504;-53
2022/11/17 13:32:19;;;;;;;6.15;0.82;;;16.50;1.00;;;;;;5028944;28;20505;-53
2022/11/17 13:34:55;;;;;;;7.20;0.80;;;16.40;1.00;;;;;;5028353;28;20871;-53
2022/11/17 13:37:26;;;;;;;6.13;0.80;;;16.30;1.00;;;;;;5029147;28;20740;-61
2022/11/17 13:40:00;;;;;;;5.95;0.82;;;15.80;1.00;;;;;;5028823;28;20387;-55
2022/11/17 13:42:30;;;;;;;7.68;0.90;;;15.70;1.00;;;;;;5027819;28;20513;-53
2022/11/17 13:44:58;;;;;;;10.82;1.40;;;15.80;1.00;;;;;;5010389;28;20419;-52
2022/11/17 13:47:44;;;;;;;7.80;1.25;;;16.00;1.00;;;;;;4998972;28;20496;-60
2022/11/17 13:50:38;;;;;;;9.60;1.00;;;16.30;1.00;;;;;;5005962;28;20421;-54